セブ の空港の天気 - METARとTAF

マクタン・セブ国際空港 ( RPVM / CEB ) - フィリピン セブ / ラプ=ラプ
飛行場実況気象(Metar)
観測時間06/26 19:00 PHT (06/26 11:00 UTC)
風向・風速南西 2m/s
視程10km以上
天気現象
少しの雲 雲底高度 610m
全天の8割程度の雲 雲底高度 7620m
気温28℃
湿度84%
気圧1010hPa
METARRPVM 261100Z 22004KT 9999 FEW020 BKN250 28/25 Q1010 NOSIG RMK A2983
過去の天気等 Google飛行場航空写真 Wunderground天気予報

過去48時間のMETAR

飛行場予報(TAF)
データがありません